createdAt,value
2018-07-26T00:00:35.138Z,148857.03
2018-07-26T00:03:06.169Z,148852.06
2018-07-26T00:05:37.370Z,148853.30
2018-07-26T00:08:08.369Z,148850.81
2018-07-26T00:10:39.267Z,148844.58
2018-07-26T00:13:10.636Z,148842.09
2018-07-26T00:15:41.727Z,148853.30
2018-07-26T00:18:12.714Z,148858.28
2018-07-26T00:20:43.514Z,148842.09
2018-07-26T00:23:14.706Z,148862.02
2018-07-26T00:25:45.721Z,148858.28
2018-07-26T00:28:17.232Z,148872.03
2018-07-26T00:30:48.453Z,148859.53
2018-07-26T00:33:19.171Z,148857.03
2018-07-26T00:35:50.087Z,148840.84
2018-07-26T00:38:20.862Z,148844.58
2018-07-26T00:40:51.663Z,148855.78
2018-07-26T00:43:22.666Z,148845.83
2018-07-26T00:45:53.759Z,148844.58
2018-07-26T00:48:25.612Z,148847.06
2018-07-26T00:50:56.625Z,148848.31
2018-07-26T00:53:27.592Z,148849.56
2018-07-26T00:55:59.419Z,148853.30
2018-07-26T00:58:30.505Z,148849.56
2018-07-26T01:01:01.328Z,148865.75
2018-07-26T01:03:32.382Z,148880.75
2018-07-26T01:06:03.228Z,148858.28
2018-07-26T01:08:34.034Z,148874.52
2018-07-26T01:11:04.895Z,148839.59
2018-07-26T01:13:35.716Z,148849.56
2018-07-26T01:16:06.549Z,148845.83
2018-07-26T01:18:38.319Z,148824.66
2018-07-26T01:21:09.200Z,148830.87
2018-07-26T01:23:40.565Z,148828.39
2018-07-26T01:26:12.100Z,148827.16
2018-07-26T01:28:43.840Z,148819.67
2018-07-26T01:31:14.749Z,148849.56
2018-07-26T01:33:45.729Z,148829.63
2018-07-26T01:36:16.862Z,148828.39
2018-07-26T01:38:47.773Z,148822.16
2018-07-26T01:41:18.865Z,148824.66
2018-07-26T01:44:00.420Z,148839.59
2018-07-26T01:46:31.329Z,148827.16
2018-07-26T01:49:03.027Z,148837.11
2018-07-26T01:51:33.685Z,148842.09
2018-07-26T01:54:04.752Z,148854.55
2018-07-26T01:56:35.579Z,148844.58
2018-07-26T01:59:07.453Z,148840.84
2018-07-26T02:01:38.582Z,148844.58
2018-07-26T02:04:09.694Z,148849.56
2018-07-26T02:06:40.679Z,148843.34
2018-07-26T02:09:12.599Z,148860.77
2018-07-26T02:11:43.940Z,148877.02
2018-07-26T02:14:19.844Z,148848.31
2018-07-26T02:16:50.691Z,148840.84
2018-07-26T02:19:21.898Z,148834.63
2018-07-26T02:21:53.138Z,148834.63
2018-07-26T02:24:24.131Z,148818.38
2018-07-26T02:26:55.128Z,148790.98
2018-07-26T02:29:26.752Z,148808.42
2018-07-26T02:31:59.144Z,148805.92
2018-07-26T02:34:30.231Z,148814.64
2018-07-26T02:37:03.278Z,148797.22
2018-07-26T02:39:35.273Z,148812.16
2018-07-26T02:42:06.425Z,148763.55
2018-07-26T02:44:37.527Z,148773.55
2018-07-26T02:47:08.515Z,148759.81
2018-07-26T02:49:39.510Z,148778.53
2018-07-26T02:52:10.615Z,148759.81
2018-07-26T02:54:41.409Z,148761.05
2018-07-26T02:57:12.630Z,148753.58
2018-07-26T02:59:44.480Z,148773.55
2018-07-26T03:02:17.030Z,148749.84
2018-07-26T03:04:48.270Z,148757.31
2018-07-26T03:07:19.259Z,148768.53
2018-07-26T03:09:50.253Z,148794.72
2018-07-26T03:12:21.475Z,148797.22
2018-07-26T03:14:52.359Z,148822.16
2018-07-26T03:17:24.241Z,148833.38
2018-07-26T03:19:56.533Z,148830.87
2018-07-26T03:22:27.733Z,148842.09
2018-07-26T03:24:58.938Z,148877.02
2018-07-26T03:27:30.237Z,148886.97
2018-07-26T03:30:02.204Z,148896.94
2018-07-26T03:32:33.505Z,148920.66
2018-07-26T03:35:04.828Z,148920.66
2018-07-26T03:37:36.093Z,148896.94
2018-07-26T03:40:08.251Z,148882.00
2018-07-26T03:42:39.408Z,148974.31
2018-07-26T03:45:10.456Z,149106.56
2018-07-26T03:47:43.217Z,149286.25
2018-07-26T03:50:14.413Z,149471.09
2018-07-26T03:52:45.313Z,149489.86
2018-07-26T03:55:16.292Z,149582.34
2018-07-26T03:57:47.730Z,149563.58
2018-07-26T04:00:19.524Z,149668.50
2018-07-26T04:02:50.665Z,149853.59
2018-07-26T04:05:21.732Z,149921.12
2018-07-26T04:07:54.257Z,149964.91
2018-07-26T04:10:25.822Z,150057.50
2018-07-26T04:12:56.524Z,150118.78
2018-07-26T04:15:28.712Z,150041.20
2018-07-26T04:18:05.392Z,149984.88
2018-07-26T04:20:36.542Z,150121.28
2018-07-26T04:23:08.570Z,150016.22
2018-07-26T04:25:39.631Z,150018.72
2018-07-26T04:28:10.461Z,149816.08
2018-07-26T04:30:43.143Z,149712.30
2018-07-26T04:33:13.987Z,149762.28
2018-07-26T04:35:45.314Z,149708.55
2018-07-26T04:38:16.131Z,149771.08
2018-07-26T04:40:47.285Z,149806.03
2018-07-26T04:43:18.151Z,150110.03
2018-07-26T04:45:49.259Z,150120.03
2018-07-26T04:48:20.141Z,149883.61
2018-07-26T04:50:51.874Z,149674.84
2018-07-26T04:53:24.246Z,149688.58
2018-07-26T04:55:55.371Z,149676.09
2018-07-26T04:58:26.250Z,149688.58
2018-07-26T05:00:58.149Z,149761.03
2018-07-26T05:03:29.273Z,149607.30
2018-07-26T05:06:00.321Z,149617.28
2018-07-26T05:08:31.438Z,149687.33
2018-07-26T05:11:02.437Z,150060.00
2018-07-26T05:13:33.384Z,150351.64
2018-07-26T05:16:04.415Z,150846.52
2018-07-26T05:18:35.428Z,151118.69
2018-07-26T05:21:06.334Z,150762.50
2018-07-26T05:23:37.428Z,151049.69
2018-07-26T05:26:09.788Z,151423.63
2018-07-26T05:28:40.900Z,151629.59
2018-07-26T05:33:57.614Z,151211.50
2018-07-26T05:36:28.619Z,151230.34
2018-07-26T05:38:59.743Z,151401.06
2018-07-26T05:41:30.991Z,151867.08
2018-07-26T05:44:02.059Z,152073.25
2018-07-26T05:46:33.253Z,152055.67
2018-07-26T05:49:04.425Z,152075.75
2018-07-26T05:51:35.412Z,152092.08
2018-07-26T05:54:06.717Z,152207.81
2018-07-26T05:56:37.854Z,152058.19
2018-07-26T05:59:10.877Z,152195.25
2018-07-26T06:01:42.658Z,151813.06
2018-07-26T06:04:14.744Z,151738.89
2018-07-26T06:06:46.190Z,151699.94
2018-07-26T06:09:17.140Z,152353.73
2018-07-26T06:11:48.380Z,152538.75
2018-07-26T06:14:19.503Z,153071.47
2018-07-26T06:16:51.512Z,153124.42
2018-07-26T06:19:22.356Z,153027.37
2018-07-26T06:21:53.597Z,153197.52
2018-07-26T06:24:24.379Z,152893.83
2018-07-26T06:26:55.846Z,152563.91
2018-07-26T06:29:27.088Z,152470.75
2018-07-26T06:31:59.033Z,151882.14
2018-07-26T06:34:30.036Z,152028.00
2018-07-26T06:37:01.406Z,152017.91
2018-07-26T06:39:32.640Z,152175.11
2018-07-26T06:42:04.682Z,152425.45
2018-07-26T06:44:35.824Z,152543.78
2018-07-26T06:47:08.022Z,152397.81
2018-07-26T06:49:39.114Z,152075.75
2018-07-26T06:52:10.111Z,151462.55
2018-07-26T06:54:41.057Z,151079.75
2018-07-26T06:57:12.105Z,151009.56
2018-07-26T06:59:46.092Z,150951.84
2018-07-26T07:02:17.996Z,150708.63
2018-07-26T07:04:49.406Z,150831.50
2018-07-26T07:07:20.670Z,150738.72
2018-07-26T07:09:51.975Z,150594.59
2018-07-26T07:12:22.961Z,150602.09
2018-07-26T07:14:54.393Z,150703.63
2018-07-26T07:17:26.259Z,150714.87
2018-07-26T07:19:57.714Z,150800.14
2018-07-26T07:22:28.834Z,150889.13
2018-07-26T07:24:59.565Z,150902.91
2018-07-26T07:27:30.720Z,150930.50
2018-07-26T07:30:03.355Z,150859.09
2018-07-26T07:32:35.427Z,150899.16
2018-07-26T07:35:06.704Z,150983.20
2018-07-26T07:37:38.317Z,151111.17
2018-07-26T07:40:10.179Z,150961.91
2018-07-26T07:42:41.269Z,150767.55
2018-07-26T07:45:12.517Z,150766.30
2018-07-26T07:47:43.748Z,150827.73
2018-07-26T07:50:14.859Z,150981.95
2018-07-26T07:52:45.924Z,151012.06
2018-07-26T07:55:18.843Z,150965.67
2018-07-26T07:57:50.742Z,151104.91
2018-07-26T08:00:21.793Z,151200.22
2018-07-26T08:02:55.334Z,151324.45
2018-07-26T08:05:26.614Z,151468.81
2018-07-26T08:07:58.528Z,151498.97
2018-07-26T08:10:30.597Z,151559.25
2018-07-26T08:13:02.021Z,151364.61
2018-07-26T08:15:33.146Z,151308.16
2018-07-26T08:18:04.403Z,151211.50
2018-07-26T08:20:35.586Z,151231.61
2018-07-26T08:23:06.945Z,151294.37
2018-07-26T08:25:38.036Z,151344.56
2018-07-26T08:28:09.886Z,151289.36
2018-07-26T08:30:40.890Z,151206.50
2018-07-26T08:33:12.395Z,151217.78
2018-07-26T08:35:43.456Z,151167.59
2018-07-26T08:38:14.911Z,151244.19
2018-07-26T08:40:46.045Z,150974.44
2018-07-26T08:43:17.177Z,151000.73
2018-07-26T08:45:48.196Z,150986.97
2018-07-26T08:48:19.604Z,151069.73
2018-07-26T08:50:51.594Z,151088.56
2018-07-26T08:53:22.752Z,151121.19
2018-07-26T08:55:53.998Z,151148.81
2018-07-26T08:58:25.186Z,151168.84
2018-07-26T09:00:57.329Z,151269.25
2018-07-26T09:03:28.176Z,151329.47
2018-07-26T09:05:59.326Z,151402.31
2018-07-26T09:08:30.847Z,151402.31
2018-07-26T09:11:02.718Z,151262.98
2018-07-26T09:13:33.995Z,151408.59
2018-07-26T09:16:05.780Z,151442.50
2018-07-26T09:18:36.790Z,151505.28
2018-07-26T09:21:08.601Z,151478.91
2018-07-26T09:23:39.498Z,151485.17
2018-07-26T09:26:10.841Z,151566.78
2018-07-26T09:28:41.978Z,151583.14
2018-07-26T09:31:13.332Z,151633.36
2018-07-26T09:33:44.744Z,151648.45
2018-07-26T09:36:16.033Z,151711.23
2018-07-26T09:38:47.280Z,151490.19
2018-07-26T09:41:19.634Z,151610.73
2018-07-26T09:43:50.808Z,151576.86
2018-07-26T09:46:22.233Z,151570.55
2018-07-26T09:48:53.466Z,151465.06
2018-07-26T09:51:25.281Z,151300.62
2018-07-26T09:53:56.528Z,151219.03
2018-07-26T09:56:27.549Z,151094.83
2018-07-26T09:58:58.837Z,150983.20
2018-07-26T10:01:31.872Z,151101.16
2018-07-26T10:04:03.533Z,151283.03
2018-07-26T10:06:36.843Z,151311.91
2018-07-26T10:09:12.925Z,151286.80
2018-07-26T10:11:44.522Z,151221.53
2018-07-26T10:14:16.027Z,151211.50
2018-07-26T10:16:46.997Z,151131.22
2018-07-26T10:19:17.932Z,151096.09
2018-07-26T10:21:48.962Z,150939.28
2018-07-26T10:24:20.090Z,151087.31
2018-07-26T10:26:52.231Z,151083.52
2018-07-26T10:29:24.548Z,151050.94
2018-07-26T10:31:55.848Z,151086.06
2018-07-26T10:34:26.791Z,151014.56
2018-07-26T10:36:58.015Z,151108.66
2018-07-26T10:39:29.754Z,151168.84
2018-07-26T10:42:00.767Z,151234.11
2018-07-26T10:44:31.677Z,151310.66
2018-07-26T10:47:03.728Z,151354.59
2018-07-26T10:49:41.645Z,151315.67
2018-07-26T10:52:13.788Z,151254.22
2018-07-26T10:54:44.679Z,151227.84
2018-07-26T10:57:15.985Z,151177.63
2018-07-26T10:59:47.057Z,151283.03
2018-07-26T11:02:18.449Z,151342.05
2018-07-26T11:04:49.524Z,151216.52
2018-07-26T11:07:20.685Z,151203.98
2018-07-26T11:09:51.808Z,151176.37
2018-07-26T11:12:22.750Z,151152.56
2018-07-26T11:14:55.102Z,151173.88
2018-07-26T11:17:25.924Z,151143.75
2018-07-26T11:19:56.945Z,151137.48
2018-07-26T11:22:28.243Z,151123.70
2018-07-26T11:25:00.126Z,151181.39
2018-07-26T11:27:31.198Z,151173.88
2018-07-26T11:30:05.263Z,151216.52
2018-07-26T11:32:36.690Z,151132.47
2018-07-26T11:35:09.239Z,151175.11
2018-07-26T11:37:41.426Z,151093.58
2018-07-26T11:40:12.798Z,151055.95
2018-07-26T11:42:44.123Z,151045.88
2018-07-26T11:45:17.068Z,150951.84
2018-07-26T11:47:48.342Z,150983.20
2018-07-26T11:50:19.900Z,150986.97
2018-07-26T11:52:50.943Z,151035.86
2018-07-26T11:55:22.235Z,150948.09
2018-07-26T11:57:54.636Z,150923.00
2018-07-26T12:00:25.731Z,150847.77
2018-07-26T12:02:57.551Z,150905.41
2018-07-26T12:05:32.633Z,150979.44
2018-07-26T12:08:04.024Z,151013.31
2018-07-26T12:10:35.928Z,150971.94
2018-07-26T12:13:06.927Z,151040.87
2018-07-26T12:15:37.977Z,150847.77
2018-07-26T12:18:09.322Z,150875.36
2018-07-26T12:20:40.577Z,150945.59
2018-07-26T12:23:12.633Z,151038.38
2018-07-26T12:25:43.856Z,151035.86
2018-07-26T12:28:15.348Z,150993.22
2018-07-26T12:30:46.456Z,150869.09
2018-07-26T12:33:17.944Z,150869.09
2018-07-26T12:35:49.968Z,150988.22
2018-07-26T12:38:27.287Z,151098.64
2018-07-26T12:40:58.757Z,151108.66
2018-07-26T12:43:30.813Z,151152.56
2018-07-26T12:46:02.336Z,151150.06
2018-07-26T12:48:33.531Z,151170.11
2018-07-26T12:51:04.665Z,151183.89
2018-07-26T12:53:36.613Z,151088.56
2018-07-26T12:56:07.893Z,151096.09
2018-07-26T12:58:39.350Z,151150.06
2018-07-26T13:01:10.615Z,151185.14
2018-07-26T13:03:45.753Z,151195.22
2018-07-26T13:06:19.530Z,151132.47
2018-07-26T13:08:51.843Z,151132.47
2018-07-26T13:11:28.711Z,151111.17
2018-07-26T13:14:00.599Z,151055.95
2018-07-26T13:16:31.655Z,151123.70
2018-07-26T13:19:03.282Z,151147.55
2018-07-26T13:21:47.977Z,151108.66
2018-07-26T13:24:26.081Z,151173.88
2018-07-26T13:26:57.996Z,151202.73
2018-07-26T13:29:30.741Z,151242.94
2018-07-26T13:32:01.957Z,151239.12
2018-07-26T13:34:32.917Z,151285.55
2018-07-26T13:37:03.960Z,151216.52
2018-07-26T13:39:35.838Z,151143.75
2018-07-26T13:42:07.666Z,151229.09
2018-07-26T13:44:39.073Z,151290.61
2018-07-26T13:47:10.297Z,151359.59
2018-07-26T13:49:41.822Z,151421.13
2018-07-26T13:52:12.710Z,151426.14
2018-07-26T13:54:46.357Z,151443.75
2018-07-26T13:57:17.857Z,151472.58
2018-07-26T13:59:49.516Z,151470.08
2018-07-26T14:02:20.669Z,151477.64
2018-07-26T14:04:52.879Z,151347.06
2018-07-26T14:07:24.194Z,151186.39
2018-07-26T14:09:55.556Z,151241.69
2018-07-26T14:12:26.709Z,151303.14
2018-07-26T14:14:58.096Z,151296.88
2018-07-26T14:17:29.205Z,151222.78
2018-07-26T14:20:00.354Z,150948.09
2018-07-26T14:22:31.573Z,150732.45
2018-07-26T14:25:02.829Z,150311.53
2018-07-26T14:27:33.966Z,150071.25
2018-07-26T14:30:06.135Z,149989.87
2018-07-26T14:32:38.932Z,149851.09
2018-07-26T14:35:10.000Z,149666.02
2018-07-26T14:37:41.400Z,149591.08
2018-07-26T14:40:12.504Z,149514.86
2018-07-26T14:42:44.008Z,149477.34
2018-07-26T14:45:16.263Z,149414.91
2018-07-26T14:47:47.944Z,149411.17
2018-07-26T14:50:19.342Z,149376.20
2018-07-26T14:52:50.943Z,149351.25
2018-07-26T14:55:22.498Z,149312.55
2018-07-26T14:57:54.888Z,149206.41
2018-07-26T15:00:26.228Z,149182.69
2018-07-26T15:03:02.098Z,149141.50
2018-07-26T15:05:33.484Z,149132.78
2018-07-26T15:08:05.123Z,149141.50
2018-07-26T15:10:36.962Z,149154.02
2018-07-26T15:13:09.274Z,149175.20
2018-07-26T15:15:44.448Z,149172.70
2018-07-26T15:18:15.568Z,149161.48
2018-07-26T15:20:46.974Z,149151.52
2018-07-26T15:23:18.072Z,149156.50
2018-07-26T15:25:49.076Z,149171.47
2018-07-26T15:28:20.505Z,149180.19
2018-07-26T15:30:53.121Z,149200.19
2018-07-26T15:33:24.159Z,149166.47
2018-07-26T15:35:55.202Z,149177.69
2018-07-26T15:38:26.457Z,149193.91
2018-07-26T15:40:59.302Z,149195.16
2018-07-26T15:43:30.824Z,149191.41
2018-07-26T15:46:01.726Z,149195.16
2018-07-26T15:48:32.726Z,149182.69
2018-07-26T15:51:04.080Z,149183.94
2018-07-26T15:53:35.387Z,149183.94
2018-07-26T15:56:06.600Z,149196.39
2018-07-26T15:58:37.403Z,149196.39
2018-07-26T16:01:08.661Z,149203.92
2018-07-26T16:03:39.883Z,149211.41
2018-07-26T16:06:10.767Z,149215.14
2018-07-26T16:08:41.899Z,149236.34
2018-07-26T16:11:13.227Z,149231.34
2018-07-26T16:13:44.609Z,149228.86
2018-07-26T16:16:16.628Z,149238.83
2018-07-26T16:18:48.078Z,149258.83
2018-07-26T16:21:19.300Z,149263.81
2018-07-26T16:23:51.420Z,149288.75
2018-07-26T16:26:23.779Z,149282.52
2018-07-26T16:28:54.829Z,149307.50
2018-07-26T16:31:26.681Z,149238.83
2018-07-26T16:33:59.063Z,149222.63
2018-07-26T16:36:30.148Z,149240.08
2018-07-26T16:39:01.355Z,149241.33
2018-07-26T16:41:32.530Z,149236.34
2018-07-26T16:44:03.850Z,149258.83
2018-07-26T16:46:36.014Z,149291.25
2018-07-26T16:49:08.391Z,149342.53
2018-07-26T16:51:40.645Z,149388.72
2018-07-26T16:54:13.118Z,149416.16
2018-07-26T16:56:44.843Z,149451.14
2018-07-26T16:59:15.972Z,149484.87
2018-07-26T17:01:47.593Z,149458.63
2018-07-26T17:04:19.340Z,149461.13
2018-07-26T17:06:51.006Z,149449.89
2018-07-26T17:09:22.191Z,149407.42
2018-07-26T17:11:54.079Z,149332.50
2018-07-26T17:14:26.087Z,149316.28
2018-07-26T17:16:58.755Z,149367.47
2018-07-26T17:19:32.897Z,149391.22
2018-07-26T17:22:04.552Z,149391.22
2018-07-26T17:24:36.443Z,149408.67
2018-07-26T17:27:08.074Z,149376.20
2018-07-26T17:29:42.036Z,149371.20
2018-07-26T17:32:13.532Z,149325.02
2018-07-26T17:34:45.469Z,149316.28
2018-07-26T17:37:18.034Z,149343.77
2018-07-26T17:39:50.713Z,149348.75
2018-07-26T17:42:22.537Z,149341.28
2018-07-26T17:44:53.730Z,149347.52
2018-07-26T17:47:24.933Z,149356.25
2018-07-26T17:49:56.377Z,149362.47
2018-07-26T17:52:27.733Z,149368.72
2018-07-26T17:54:59.213Z,149382.44
2018-07-26T17:57:32.536Z,149382.44
2018-07-26T18:00:06.851Z,149399.94
2018-07-26T18:02:38.833Z,149407.42
2018-07-26T18:05:11.226Z,149371.20
2018-07-26T18:07:42.964Z,149348.75
2018-07-26T18:10:14.112Z,149377.44
2018-07-26T18:12:46.476Z,149376.20
2018-07-26T18:15:19.534Z,149377.44
2018-07-26T18:17:52.722Z,149366.22
2018-07-26T18:20:25.712Z,149332.50
2018-07-26T18:22:56.970Z,149318.78
2018-07-26T18:25:30.350Z,149361.23
2018-07-26T18:28:01.878Z,149358.73
2018-07-26T18:30:38.188Z,149353.75
2018-07-26T18:33:10.112Z,149381.19
2018-07-26T18:35:41.411Z,149399.94
2018-07-26T18:38:14.361Z,149389.97
2018-07-26T18:40:46.548Z,149416.16
2018-07-26T18:43:18.007Z,149436.17
2018-07-26T18:45:49.605Z,149446.16
2018-07-26T18:48:21.138Z,149446.16
2018-07-26T18:50:53.053Z,149462.36
2018-07-26T18:53:24.483Z,149453.63
2018-07-26T18:55:56.403Z,149457.37
2018-07-26T18:58:29.197Z,149452.39
2018-07-26T19:01:00.592Z,149408.67
2018-07-26T19:03:31.778Z,149398.69
2018-07-26T19:06:04.077Z,149389.97
2018-07-26T19:08:36.281Z,149426.14
2018-07-26T19:11:08.051Z,149419.91
2018-07-26T19:13:39.387Z,149443.66
2018-07-26T19:16:12.037Z,149431.13
2018-07-26T19:18:44.808Z,149394.95
2018-07-26T19:21:17.086Z,149411.17
2018-07-26T19:23:49.094Z,149361.23
2018-07-26T19:26:20.502Z,149358.73
2018-07-26T19:28:52.381Z,149359.98
2018-07-26T19:31:25.502Z,149363.72
2018-07-26T19:33:56.706Z,149343.77
2018-07-26T19:36:28.032Z,149313.78
2018-07-26T19:38:59.279Z,149306.27
2018-07-26T19:41:31.754Z,149281.28
2018-07-26T19:44:06.764Z,149345.02
2018-07-26T19:46:41.600Z,149341.28
2018-07-26T19:49:13.071Z,149353.75
2018-07-26T19:51:43.998Z,149336.23
2018-07-26T19:54:17.597Z,149297.53
2018-07-26T19:56:49.312Z,149288.75
2018-07-26T19:59:20.709Z,149288.75
2018-07-26T20:01:51.999Z,149241.33
2018-07-26T20:04:25.232Z,149277.53
2018-07-26T20:06:56.664Z,149278.78
2018-07-26T20:09:28.137Z,149278.78
2018-07-26T20:12:00.452Z,149268.81
2018-07-26T20:14:31.695Z,149305.02
2018-07-26T20:17:03.081Z,149338.73
2018-07-26T20:19:35.813Z,149323.77
2018-07-26T20:22:07.531Z,149311.30
2018-07-26T20:24:40.937Z,149301.28
2018-07-26T20:27:12.287Z,149306.27
2018-07-26T20:29:43.471Z,149296.28
2018-07-26T20:32:22.047Z,149263.81
2018-07-26T20:34:53.237Z,149273.80
2018-07-26T20:37:24.258Z,149280.03
2018-07-26T20:39:55.333Z,149263.81
2018-07-26T20:42:28.824Z,149271.30
2018-07-26T20:45:02.078Z,149286.25
2018-07-26T20:47:33.478Z,149283.77
2018-07-26T20:50:08.374Z,149292.50
2018-07-26T20:52:40.045Z,149321.28
2018-07-26T20:55:11.652Z,149293.80
2018-07-26T20:57:43.151Z,149308.80
2018-07-26T21:00:15.149Z,149323.77
2018-07-26T21:02:46.325Z,149322.53
2018-07-26T21:05:18.090Z,149318.78
2018-07-26T21:07:50.838Z,149296.28
2018-07-26T21:10:23.005Z,149278.78
2018-07-26T21:12:54.275Z,149262.56
2018-07-26T21:15:25.499Z,149230.11
2018-07-26T21:17:56.774Z,149236.34
2018-07-26T21:20:28.923Z,149255.09
2018-07-26T21:23:00.223Z,149241.33
2018-07-26T21:25:32.186Z,149242.58
2018-07-26T21:28:03.103Z,149221.38
2018-07-26T21:30:34.429Z,149217.63
2018-07-26T21:33:06.571Z,149200.19
2018-07-26T21:35:37.964Z,149211.41
2018-07-26T21:38:09.054Z,149222.63
2018-07-26T21:40:40.787Z,149212.66
2018-07-26T21:43:12.160Z,149228.86
2018-07-26T21:45:43.249Z,149227.61
2018-07-26T21:48:15.262Z,149211.41
2018-07-26T21:50:46.714Z,149213.89
2018-07-26T21:53:17.810Z,149221.38
2018-07-26T21:55:51.905Z,149202.67
2018-07-26T21:58:23.259Z,149202.67
2018-07-26T22:00:59.207Z,149191.41
2018-07-26T22:03:31.077Z,149212.66
2018-07-26T22:06:02.399Z,149233.84
2018-07-26T22:08:35.198Z,149255.09
2018-07-26T22:11:12.439Z,149221.38
2018-07-26T22:13:43.683Z,149207.66
2018-07-26T22:16:14.831Z,149208.91
2018-07-26T22:18:45.935Z,149211.41
2018-07-26T22:21:17.176Z,149201.44
2018-07-26T22:23:48.867Z,149207.66
2018-07-26T22:26:20.026Z,149201.44
2018-07-26T22:28:51.231Z,149181.44
2018-07-26T22:31:22.691Z,149171.47
2018-07-26T22:33:53.651Z,149173.95
2018-07-26T22:36:25.167Z,149171.47
2018-07-26T22:38:56.010Z,149177.69
2018-07-26T22:41:27.099Z,149163.98
2018-07-26T22:43:58.291Z,149166.47
2018-07-26T22:46:29.374Z,149176.45
2018-07-26T22:49:00.332Z,149154.02
2018-07-26T22:51:32.078Z,149177.69
2018-07-26T22:54:03.976Z,149161.48
2018-07-26T22:56:35.354Z,149157.75
2018-07-26T22:59:06.312Z,149178.94
2018-07-26T23:01:37.643Z,149193.91
2018-07-26T23:04:09.017Z,149178.94
2018-07-26T23:06:40.084Z,149187.67
2018-07-26T23:09:12.698Z,149187.67
2018-07-26T23:11:44.322Z,149183.94
2018-07-26T23:14:15.615Z,149193.91
2018-07-26T23:16:46.944Z,149185.17
2018-07-26T23:19:18.723Z,149178.94
2018-07-26T23:21:52.357Z,149168.97
2018-07-26T23:24:23.401Z,149173.95
2018-07-26T23:26:54.434Z,149188.91
2018-07-26T23:29:26.520Z,149185.17
2018-07-26T23:31:57.556Z,149183.94
2018-07-26T23:34:29.301Z,149166.47
2018-07-26T23:37:02.110Z,149166.47
2018-07-26T23:39:33.192Z,149156.50
2018-07-26T23:42:05.263Z,149147.73
2018-07-26T23:44:36.418Z,149166.47
2018-07-26T23:47:07.682Z,149162.73
2018-07-26T23:49:38.655Z,149161.48
2018-07-26T23:52:09.847Z,149162.73
2018-07-26T23:54:40.710Z,149180.19
2018-07-26T23:57:12.799Z,149175.20
2018-07-26T23:59:44.389Z,149167.72
